Niotaze, Kansas
Current Conditions -  °F | °C
As of 2:15 AM on Monday 24 Nov 2014 (Local Time) from KIDP Reporting Station
Clear Clear  
Wind Chill:   Ceiling: Unl
Heat Index:   Visibility: 10mi
Dew Point:   Wind: 9mph
Humidity: 75%   Direction: 290°WNW
Pressure: 29.71"   Gusts: NA
Location:  37.07°N, 96.01°W
Report Text: KIDP 240815Z AUTO 29008KT 10SM CLR 04/00 A2971 RMK AO2
Loading
Personal Weather Stations






























Interactive Weather Map New forecast layout! Learn more

10-Day Weather Forecast

Advertisements
Track Severe Weather on mobile